FKKN

N'Gaoundéré Airport

N'Gaoundéré, Cameroon
METAR FKKN 221700Z 00000KT 9999 FEW020 FEW023CB 23/20 Q1014
Observed Flight Rules
Oct-22 @ 17:00 UTC (4 hours ago) Visual Flight Rules
Visibility Clouds
10,000+ meters
  • Few at 2,000' AGL
  • Few at 2,300' AGL
Temperatures Readings
Current 23°C / 73°F
Dewpoint 20°C / 68°F
Humidity 83%
Altimeter 29.94" Hg
Pressure 1014 hPa
Elevation 1104
METAR FKKN 221700Z 00000KT 9999 FEW020 FEW023CB 23/20 Q1014
Observed Flight Rules
Oct-22 @ 17:00 UTC
(4 hours ago)
VFR
Clouds
  • Few at 2,000' AGL
  • Few at 2,300' AGL
Temperature Dewpoint
23°C / 73°F 20°C / 68°F
Humidity Altimeter Pressure
83% 29.94" Hg 1014 hPa